sensor_id;sensor_type;location;lat;lon;timestamp;pressure;altitude;pressure_sealevel;temperature;humidity
20860;BME280;10590;48.154;11.514;2023-05-12T00:04:25;95383.09;;;9.42;92.62
20860;BME280;10590;48.154;11.514;2023-05-12T00:09:48;95380.91;;;9.36;93.04
20860;BME280;10590;48.154;11.514;2023-05-12T00:15:10;95373.69;;;9.45;92.59
20860;BME280;10590;48.154;11.514;2023-05-12T00:20:32;95370.41;;;9.39;93.06
20860;BME280;10590;48.154;11.514;2023-05-12T00:25:56;95375.56;;;9.44;92.72
20860;BME280;10590;48.154;11.514;2023-05-12T00:31:17;95374.00;;;9.26;93.36
20860;BME280;10590;48.154;11.514;2023-05-12T00:36:39;95368.06;;;9.29;93.40
20860;BME280;10590;48.154;11.514;2023-05-12T00:42:03;95371.34;;;9.43;93.23
20860;BME280;10590;48.154;11.514;2023-05-12T00:47:25;95361.47;;;9.44;92.17
20860;BME280;10590;48.154;11.514;2023-05-12T00:52:48;95357.25;;;9.43;92.78
20860;BME280;10590;48.154;11.514;2023-05-12T00:58:11;95365.09;;;9.56;92.01
20860;BME280;10590;48.154;11.514;2023-05-12T01:03:33;95359.75;;;9.48;91.84
20860;BME280;10590;48.154;11.514;2023-05-12T01:08:56;95361.19;;;9.54;91.56
20860;BME280;10590;48.154;11.514;2023-05-12T01:14:19;95365.72;;;9.53;91.98
20860;BME280;10590;48.154;11.514;2023-05-12T01:19:48;95366.97;;;9.47;91.99
20860;BME280;10590;48.154;11.514;2023-05-12T01:25:11;95357.91;;;9.57;91.87
20860;BME280;10590;48.154;11.514;2023-05-12T01:30:35;95348.16;;;9.52;91.40
20860;BME280;10590;48.154;11.514;2023-05-12T01:36:01;95343.47;;;9.49;91.64
20860;BME280;10590;48.154;11.514;2023-05-12T01:41:23;95349.38;;;8.94;92.55
20860;BME280;10590;48.154;11.514;2023-05-12T01:46:46;95352.72;;;9.35;92.11
20860;BME280;10590;48.154;11.514;2023-05-12T01:52:09;95350.34;;;9.42;91.61
20860;BME280;10590;48.154;11.514;2023-05-12T01:57:30;95356.78;;;9.32;90.96
20860;BME280;10590;48.154;11.514;2023-05-12T02:02:54;95354.75;;;9.46;91.17
20860;BME280;10590;48.154;11.514;2023-05-12T02:08:16;95349.41;;;9.46;91.81
20860;BME280;10590;48.154;11.514;2023-05-12T02:13:38;95350.69;;;9.32;91.91
20860;BME280;10590;48.154;11.514;2023-05-12T02:19:02;95353.19;;;9.45;92.12
20860;BME280;10590;48.154;11.514;2023-05-12T02:24:23;95351.13;;;9.42;92.17
20860;BME280;10590;48.154;11.514;2023-05-12T02:29:45;95351.28;;;9.46;92.42
20860;BME280;10590;48.154;11.514;2023-05-12T02:35:09;95347.53;;;9.47;92.59
20860;BME280;10590;48.154;11.514;2023-05-12T02:40:31;95339.88;;;9.37;92.30
20860;BME280;10590;48.154;11.514;2023-05-12T02:45:53;95345.81;;;9.34;92.53
20860;BME280;10590;48.154;11.514;2023-05-12T02:51:17;95343.94;;;9.43;92.10
20860;BME280;10590;48.154;11.514;2023-05-12T02:56:38;95347.53;;;9.38;92.01
20860;BME280;10590;48.154;11.514;2023-05-12T03:02:00;95352.09;;;9.29;92.40
20860;BME280;10590;48.154;11.514;2023-05-12T03:07:24;95346.59;;;9.34;92.00
20860;BME280;10590;48.154;11.514;2023-05-12T03:12:46;95349.72;;;9.36;92.00
20860;BME280;10590;48.154;11.514;2023-05-12T03:18:07;95353.50;;;9.35;91.76
20860;BME280;10590;48.154;11.514;2023-05-12T03:23:31;95348.00;;;9.32;91.93
20860;BME280;10590;48.154;11.514;2023-05-12T03:28:53;95363.19;;;9.48;91.89
20860;BME280;10590;48.154;11.514;2023-05-12T03:34:15;95358.34;;;9.42;91.54
20860;BME280;10590;48.154;11.514;2023-05-12T03:39:38;95356.63;;;9.37;91.37
20860;BME280;10590;48.154;11.514;2023-05-12T03:45:00;95354.09;;;8.98;94.20
20860;BME280;10590;48.154;11.514;2023-05-12T03:50:22;95355.66;;;8.99;93.48
20860;BME280;10590;48.154;11.514;2023-05-12T03:55:45;95341.75;;;9.10;93.25
20860;BME280;10590;48.154;11.514;2023-05-12T04:01:07;95349.09;;;9.05;93.40
20860;BME280;10590;48.154;11.514;2023-05-12T04:06:29;95356.31;;;9.13;93.50
20860;BME280;10590;48.154;11.514;2023-05-12T04:11:52;95358.78;;;8.92;93.99
20860;BME280;10590;48.154;11.514;2023-05-12T04:17:14;95355.38;;;9.26;92.34
20860;BME280;10590;48.154;11.514;2023-05-12T04:22:38;95349.09;;;9.05;94.61
20860;BME280;10590;48.154;11.514;2023-05-12T04:28:01;95357.25;;;9.17;93.41
20860;BME280;10590;48.154;11.514;2023-05-12T04:33:23;95367.13;;;9.25;92.93
20860;BME280;10590;48.154;11.514;2023-05-12T04:38:45;95374.63;;;9.23;93.18
20860;BME280;10590;48.154;11.514;2023-05-12T04:44:08;95378.84;;;9.15;93.83
20860;BME280;10590;48.154;11.514;2023-05-12T04:49:30;95375.97;;;8.77;95.20
20860;BME280;10590;48.154;11.514;2023-05-12T04:54:52;95374.94;;;9.30;93.41
20860;BME280;10590;48.154;11.514;2023-05-12T05:00:16;95387.66;;;9.68;91.64
20860;BME280;10590;48.154;11.514;2023-05-12T05:05:38;95378.56;;;9.69;91.11
20860;BME280;10590;48.154;11.514;2023-05-12T05:10:59;95384.03;;;9.89;91.10
20860;BME280;10590;48.154;11.514;2023-05-12T05:16:23;95388.88;;;9.96;90.25
20860;BME280;10590;48.154;11.514;2023-05-12T05:21:45;95386.69;;;9.98;90.58
20860;BME280;10590;48.154;11.514;2023-05-12T05:27:07;95389.16;;;10.29;89.57
20860;BME280;10590;48.154;11.514;2023-05-12T05:32:30;95392.44;;;10.26;89.46
20860;BME280;10590;48.154;11.514;2023-05-12T05:37:52;95389.47;;;10.28;89.83
20860;BME280;10590;48.154;11.514;2023-05-12T05:43:14;95394.13;;;10.48;88.98
20860;BME280;10590;48.154;11.514;2023-05-12T05:48:38;95395.75;;;10.23;88.93
20860;BME280;10590;48.154;11.514;2023-05-12T05:54:00;95401.22;;;10.27;89.64
20860;BME280;10590;48.154;11.514;2023-05-12T05:59:22;95398.53;;;10.44;89.26
20860;BME280;10590;48.154;11.514;2023-05-12T06:04:45;95394.63;;;10.33;88.92
20860;BME280;10590;48.154;11.514;2023-05-12T06:10:07;95406.09;;;10.42;89.23
20860;BME280;10590;48.154;11.514;2023-05-12T06:15:29;95395.88;;;10.35;89.37
20860;BME280;10590;48.154;11.514;2023-05-12T06:20:53;95408.88;;;10.54;88.27
20860;BME280;10590;48.154;11.514;2023-05-12T06:26:15;95407.97;;;10.24;89.94
20860;BME280;10590;48.154;11.514;2023-05-12T06:31:37;95414.78;;;10.68;86.49
20860;BME280;10590;48.154;11.514;2023-05-12T06:37:00;95418.91;;;10.57;87.50
20860;BME280;10590;48.154;11.514;2023-05-12T06:42:22;95417.03;;;10.49;86.39
20860;BME280;10590;48.154;11.514;2023-05-12T06:47:44;95426.00;;;10.44;87.54
20860;BME280;10590;48.154;11.514;2023-05-12T06:53:07;95424.44;;;10.09;87.09
20860;BME280;10590;48.154;11.514;2023-05-12T06:58:29;95422.41;;;10.40;88.78
20860;BME280;10590;48.154;11.514;2023-05-12T07:03:51;95425.06;;;10.32;89.00
20860;BME280;10590;48.154;11.514;2023-05-12T07:09:14;95429.13;;;10.38;89.01
20860;BME280;10590;48.154;11.514;2023-05-12T07:14:38;95424.25;;;10.40;88.76
20860;BME280;10590;48.154;11.514;2023-05-12T07:20:00;95423.97;;;10.33;88.53
20860;BME280;10590;48.154;11.514;2023-05-12T07:25:25;95419.72;;;10.49;88.60
20860;BME280;10590;48.154;11.514;2023-05-12T07:30:47;95418.75;;;10.53;88.20
20860;BME280;10590;48.154;11.514;2023-05-12T07:36:09;95423.16;;;10.49;87.70
20860;BME280;10590;48.154;11.514;2023-05-12T07:41:33;95425.19;;;10.52;88.48
20860;BME280;10590;48.154;11.514;2023-05-12T07:46:54;95430.31;;;10.66;88.02
20860;BME280;10590;48.154;11.514;2023-05-12T07:52:16;95430.72;;;10.85;87.25
20860;BME280;10590;48.154;11.514;2023-05-12T07:57:40;95422.34;;;10.96;86.93
20860;BME280;10590;48.154;11.514;2023-05-12T08:03:02;95425.56;;;11.10;86.40
20860;BME280;10590;48.154;11.514;2023-05-12T08:08:24;95419.06;;;11.20;85.34
20860;BME280;10590;48.154;11.514;2023-05-12T08:13:47;95427.66;;;11.34;84.86
20860;BME280;10590;48.154;11.514;2023-05-12T08:19:09;95416.97;;;11.55;82.93
20860;BME280;10590;48.154;11.514;2023-05-12T08:24:31;95415.22;;;11.59;84.03
20860;BME280;10590;48.154;11.514;2023-05-12T08:29:55;95421.84;;;11.53;81.99
20860;BME280;10590;48.154;11.514;2023-05-12T08:35:16;95425.28;;;11.03;85.13
20860;BME280;10590;48.154;11.514;2023-05-12T08:40:45;95428.50;;;11.17;84.23
20860;BME280;10590;48.154;11.514;2023-05-12T08:46:10;95426.16;;;11.45;84.28
20860;BME280;10590;48.154;11.514;2023-05-12T08:51:35;95428.13;;;11.57;84.68
20860;BME280;10590;48.154;11.514;2023-05-12T08:56:59;95428.06;;;11.86;82.61
20860;BME280;10590;48.154;11.514;2023-05-12T09:02:23;95426.81;;;11.63;83.21
20860;BME280;10590;48.154;11.514;2023-05-12T09:07:48;95435.69;;;11.96;82.85
20860;BME280;10590;48.154;11.514;2023-05-12T09:13:12;95424.59;;;11.65;81.85
20860;BME280;10590;48.154;11.514;2023-05-12T09:18:47;95441.03;;;11.96;81.20
20860;BME280;10590;48.154;11.514;2023-05-12T09:24:12;95435.06;;;11.78;82.00
20860;BME280;10590;48.154;11.514;2023-05-12T09:29:34;95435.81;;;12.66;78.62
20860;BME280;10590;48.154;11.514;2023-05-12T09:35:00;95426.91;;;12.74;78.82
20860;BME280;10590;48.154;11.514;2023-05-12T09:40:23;95436.53;;;12.42;78.36
20860;BME280;10590;48.154;11.514;2023-05-12T09:45:45;95438.72;;;12.28;79.82
20860;BME280;10590;48.154;11.514;2023-05-12T09:51:11;95425.47;;;12.31;78.76
20860;BME280;10590;48.154;11.514;2023-05-12T09:56:36;95435.84;;;12.33;79.14
20860;BME280;10590;48.154;11.514;2023-05-12T10:02:00;95431.38;;;12.25;80.52
20860;BME280;10590;48.154;11.514;2023-05-12T10:07:26;95435.59;;;12.26;82.03
20860;BME280;10590;48.154;11.514;2023-05-12T10:12:49;95434.59;;;11.97;82.26
20860;BME280;10590;48.154;11.514;2023-05-12T10:18:11;95438.69;;;11.53;82.00
20860;BME280;10590;48.154;11.514;2023-05-12T10:23:38;95445.19;;;11.43;81.83
20860;BME280;10590;48.154;11.514;2023-05-12T10:29:01;95444.69;;;11.71;82.30
20860;BME280;10590;48.154;11.514;2023-05-12T10:34:29;95438.75;;;12.07;81.06
20860;BME280;10590;48.154;11.514;2023-05-12T10:39:59;95448.66;;;12.06;82.52
20860;BME280;10590;48.154;11.514;2023-05-12T10:45:23;95450.53;;;12.27;79.66
20860;BME280;10590;48.154;11.514;2023-05-12T10:50:52;95446.94;;;12.56;77.34
20860;BME280;10590;48.154;11.514;2023-05-12T10:56:21;95445.44;;;12.34;78.78
20860;BME280;10590;48.154;11.514;2023-05-12T11:01:56;95445.75;;;12.77;77.39
20860;BME280;10590;48.154;11.514;2023-05-12T11:07:20;95448.94;;;13.41;74.89
20860;BME280;10590;48.154;11.514;2023-05-12T11:12:43;95448.66;;;12.97;76.31
20860;BME280;10590;48.154;11.514;2023-05-12T11:18:05;95448.47;;;12.44;77.81
20860;BME280;10590;48.154;11.514;2023-05-12T11:23:28;95454.22;;;12.22;78.51
20860;BME280;10590;48.154;11.514;2023-05-12T11:28:52;95459.56;;;12.67;77.27
20860;BME280;10590;48.154;11.514;2023-05-12T11:34:14;95450.78;;;12.79;78.34
20860;BME280;10590;48.154;11.514;2023-05-12T11:39:37;95442.69;;;13.24;76.10
20860;BME280;10590;48.154;11.514;2023-05-12T11:45:04;95461.69;;;13.31;76.71
20860;BME280;10590;48.154;11.514;2023-05-12T11:50:27;95464.22;;;13.16;72.71
20860;BME280;10590;48.154;11.514;2023-05-12T11:55:50;95459.63;;;13.16;72.20
20860;BME280;10590;48.154;11.514;2023-05-12T12:01:13;95456.97;;;13.04;72.26
20860;BME280;10590;48.154;11.514;2023-05-12T12:06:42;95464.06;;;12.88;72.75
20860;BME280;10590;48.154;11.514;2023-05-12T12:12:05;95468.72;;;12.79;74.06
20860;BME280;10590;48.154;11.514;2023-05-12T12:17:29;95464.03;;;12.75;73.88
20860;BME280;10590;48.154;11.514;2023-05-12T12:22:52;95468.16;;;12.73;72.70
20860;BME280;10590;48.154;11.514;2023-05-12T12:28:14;95464.81;;;12.31;73.78
20860;BME280;10590;48.154;11.514;2023-05-12T12:33:37;95469.72;;;12.29;73.66
20860;BME280;10590;48.154;11.514;2023-05-12T12:38:59;95468.03;;;12.03;72.78
20860;BME280;10590;48.154;11.514;2023-05-12T12:44:21;95475.28;;;12.24;72.73
20860;BME280;10590;48.154;11.514;2023-05-12T12:49:44;95473.72;;;12.56;72.10
20860;BME280;10590;48.154;11.514;2023-05-12T12:55:07;95477.78;;;12.86;71.14
20860;BME280;10590;48.154;11.514;2023-05-12T13:00:29;95470.69;;;12.57;71.66
20860;BME280;10590;48.154;11.514;2023-05-12T13:05:52;95478.09;;;12.72;71.62
20860;BME280;10590;48.154;11.514;2023-05-12T13:11:14;95474.00;;;12.87;70.54
20860;BME280;10590;48.154;11.514;2023-05-12T13:16:37;95466.88;;;13.03;69.97
20860;BME280;10590;48.154;11.514;2023-05-12T13:22:00;95473.72;;;13.25;69.56
20860;BME280;10590;48.154;11.514;2023-05-12T13:27:22;95464.56;;;13.38;69.54
20860;BME280;10590;48.154;11.514;2023-05-12T13:32:46;95469.94;;;13.38;70.60
20860;BME280;10590;48.154;11.514;2023-05-12T13:38:11;95462.53;;;13.60;68.08
20860;BME280;10590;48.154;11.514;2023-05-12T13:43:33;95468.25;;;14.11;67.49
20860;BME280;10590;48.154;11.514;2023-05-12T13:48:55;95471.31;;;14.25;67.06
20860;BME280;10590;48.154;11.514;2023-05-12T13:54:19;95468.28;;;13.98;68.61
20860;BME280;10590;48.154;11.514;2023-05-12T13:59:42;95478.56;;;13.84;68.84
20860;BME280;10590;48.154;11.514;2023-05-12T14:05:05;95474.63;;;13.29;71.87
20860;BME280;10590;48.154;11.514;2023-05-12T14:10:29;95465.81;;;14.06;69.67
20860;BME280;10590;48.154;11.514;2023-05-12T14:15:52;95466.06;;;13.76;71.05
20860;BME280;10590;48.154;11.514;2023-05-12T14:21:14;95467.03;;;13.31;70.91
20860;BME280;10590;48.154;11.514;2023-05-12T14:26:37;95468.88;;;12.94;73.18
20860;BME280;10590;48.154;11.514;2023-05-12T14:31:59;95477.66;;;13.28;72.92
20860;BME280;10590;48.154;11.514;2023-05-12T14:37:22;95476.03;;;13.02;74.55
20860;BME280;10590;48.154;11.514;2023-05-12T14:42:45;95472.38;;;13.07;74.38
20860;BME280;10590;48.154;11.514;2023-05-12T14:48:08;95475.72;;;12.59;76.41
20860;BME280;10590;48.154;11.514;2023-05-12T14:53:30;95476.31;;;12.76;75.81
20860;BME280;10590;48.154;11.514;2023-05-12T14:58:54;95472.03;;;12.51;75.69
20860;BME280;10590;48.154;11.514;2023-05-12T15:04:16;95483.06;;;12.50;77.09
20860;BME280;10590;48.154;11.514;2023-05-12T15:09:37;95486.34;;;12.13;78.05
20860;BME280;10590;48.154;11.514;2023-05-12T15:15:01;95485.88;;;11.70;78.72
20860;BME280;10590;48.154;11.514;2023-05-12T15:20:24;95487.91;;;11.73;78.15
20860;BME280;10590;48.154;11.514;2023-05-12T15:25:46;95488.78;;;11.86;77.80
20860;BME280;10590;48.154;11.514;2023-05-12T15:31:09;95489.03;;;12.13;77.03
20860;BME280;10590;48.154;11.514;2023-05-12T15:36:31;95493.16;;;11.90;77.32
20860;BME280;10590;48.154;11.514;2023-05-12T15:41:53;95488.03;;;11.76;78.10
20860;BME280;10590;48.154;11.514;2023-05-12T15:47:16;95503.59;;;11.83;78.08
20860;BME280;10590;48.154;11.514;2023-05-12T15:52:38;95494.84;;;11.95;77.22
20860;BME280;10590;48.154;11.514;2023-05-12T15:58:00;95498.31;;;11.95;76.82
20860;BME280;10590;48.154;11.514;2023-05-12T16:03:25;95495.50;;;11.92;76.44
20860;BME280;10590;48.154;11.514;2023-05-12T16:08:47;95499.50;;;11.77;77.08
20860;BME280;10590;48.154;11.514;2023-05-12T16:14:09;95502.09;;;11.94;77.14
20860;BME280;10590;48.154;11.514;2023-05-12T16:19:33;95491.78;;;12.05;76.80
20860;BME280;10590;48.154;11.514;2023-05-12T16:24:55;95499.34;;;11.82;77.20
20860;BME280;10590;48.154;11.514;2023-05-12T16:30:18;95488.66;;;11.82;77.28
20860;BME280;10590;48.154;11.514;2023-05-12T16:35:42;95492.91;;;11.74;77.77
20860;BME280;10590;48.154;11.514;2023-05-12T16:41:04;95494.53;;;11.67;78.37
20860;BME280;10590;48.154;11.514;2023-05-12T16:46:25;95486.63;;;11.49;79.19
20860;BME280;10590;48.154;11.514;2023-05-12T16:51:49;95502.53;;;11.46;79.34
20860;BME280;10590;48.154;11.514;2023-05-12T16:57:11;95502.41;;;11.42;79.56
20860;BME280;10590;48.154;11.514;2023-05-12T17:02:32;95503.44;;;11.50;79.57
20860;BME280;10590;48.154;11.514;2023-05-12T17:07:56;95508.06;;;11.41;79.87
20860;BME280;10590;48.154;11.514;2023-05-12T17:13:18;95506.81;;;11.38;79.61
20860;BME280;10590;48.154;11.514;2023-05-12T17:18:40;95510.09;;;11.44;79.29
20860;BME280;10590;48.154;11.514;2023-05-12T17:24:04;95514.19;;;11.41;79.75
20860;BME280;10590;48.154;11.514;2023-05-12T17:29:27;95524.31;;;11.18;80.61
20860;BME280;10590;48.154;11.514;2023-05-12T17:34:49;95520.44;;;11.07;80.82
20860;BME280;10590;48.154;11.514;2023-05-12T17:40:14;95522.75;;;10.79;81.21
20860;BME280;10590;48.154;11.514;2023-05-12T17:45:37;95526.16;;;10.89;80.75
20860;BME280;10590;48.154;11.514;2023-05-12T17:50:59;95525.72;;;10.78;81.07
20860;BME280;10590;48.154;11.514;2023-05-12T17:56:24;95530.72;;;10.88;80.01
20860;BME280;10590;48.154;11.514;2023-05-12T18:01:46;95537.94;;;10.88;80.59
20860;BME280;10590;48.154;11.514;2023-05-12T18:07:08;95546.88;;;10.92;80.60
20860;BME280;10590;48.154;11.514;2023-05-12T18:12:31;95550.38;;;10.75;80.78
20860;BME280;10590;48.154;11.514;2023-05-12T18:17:53;95545.19;;;10.78;80.51
20860;BME280;10590;48.154;11.514;2023-05-12T18:23:17;95550.22;;;10.71;81.23
20860;BME280;10590;48.154;11.514;2023-05-12T18:28:41;95553.56;;;10.60;81.39
20860;BME280;10590;48.154;11.514;2023-05-12T18:34:04;95553.53;;;10.68;80.98
20860;BME280;10590;48.154;11.514;2023-05-12T18:39:27;95552.59;;;10.64;81.14
20860;BME280;10590;48.154;11.514;2023-05-12T18:44:53;95552.75;;;10.59;81.64
20860;BME280;10590;48.154;11.514;2023-05-12T18:50:16;95559.66;;;10.69;81.11
20860;BME280;10590;48.154;11.514;2023-05-12T18:55:38;95568.13;;;10.62;81.16
20860;BME280;10590;48.154;11.514;2023-05-12T19:01:02;95573.75;;;10.78;80.72
20860;BME280;10590;48.154;11.514;2023-05-12T19:06:24;95560.31;;;10.48;81.41
20860;BME280;10590;48.154;11.514;2023-05-12T19:11:46;95570.66;;;10.59;80.98
20860;BME280;10590;48.154;11.514;2023-05-12T19:17:09;95578.03;;;10.62;80.70
20860;BME280;10590;48.154;11.514;2023-05-12T19:22:34;95569.56;;;10.51;81.17
20860;BME280;10590;48.154;11.514;2023-05-12T19:27:58;95576.94;;;10.45;81.53
20860;BME280;10590;48.154;11.514;2023-05-12T19:33:22;95583.81;;;10.20;82.63
20860;BME280;10590;48.154;11.514;2023-05-12T19:38:46;95583.81;;;10.29;82.32
20860;BME280;10590;48.154;11.514;2023-05-12T19:44:08;95579.16;;;10.43;81.21
20860;BME280;10590;48.154;11.514;2023-05-12T19:49:34;95587.13;;;10.35;81.69
20860;BME280;10590;48.154;11.514;2023-05-12T19:54:56;95579.91;;;10.27;82.11
20860;BME280;10590;48.154;11.514;2023-05-12T20:00:18;95587.44;;;10.25;81.83
20860;BME280;10590;48.154;11.514;2023-05-12T20:05:43;95583.78;;;10.12;81.82
20860;BME280;10590;48.154;11.514;2023-05-12T20:11:05;95584.56;;;10.04;81.74
20860;BME280;10590;48.154;11.514;2023-05-12T20:16:28;95590.84;;;9.99;80.82
20860;BME280;10590;48.154;11.514;2023-05-12T20:21:51;95585.81;;;10.06;81.24
20860;BME280;10590;48.154;11.514;2023-05-12T20:27:13;95593.91;;;9.75;82.27
20860;BME280;10590;48.154;11.514;2023-05-12T20:32:35;95592.06;;;9.93;81.86
20860;BME280;10590;48.154;11.514;2023-05-12T20:37:59;95593.66;;;9.94;81.21
20860;BME280;10590;48.154;11.514;2023-05-12T20:43:25;95588.31;;;9.94;81.59
20860;BME280;10590;48.154;11.514;2023-05-12T20:48:47;95592.53;;;9.95;80.64
20860;BME280;10590;48.154;11.514;2023-05-12T20:54:10;95593.00;;;9.80;81.68
20860;BME280;10590;48.154;11.514;2023-05-12T20:59:32;95588.78;;;9.96;81.06
20860;BME280;10590;48.154;11.514;2023-05-12T21:04:54;95582.22;;;10.02;80.87
20860;BME280;10590;48.154;11.514;2023-05-12T21:10:19;95587.06;;;10.00;81.01
20860;BME280;10590;48.154;11.514;2023-05-12T21:15:41;95585.66;;;10.03;80.22
20860;BME280;10590;48.154;11.514;2023-05-12T21:21:03;95587.22;;;9.95;80.62
20860;BME280;10590;48.154;11.514;2023-05-12T21:26:27;95592.22;;;9.88;80.96
20860;BME280;10590;48.154;11.514;2023-05-12T21:31:49;95599.44;;;9.87;81.06
20860;BME280;10590;48.154;11.514;2023-05-12T21:37:11;95594.56;;;9.89;80.86
20860;BME280;10590;48.154;11.514;2023-05-12T21:42:34;95595.00;;;9.74;81.18
20860;BME280;10590;48.154;11.514;2023-05-12T21:47:56;95596.91;;;9.82;80.91
20860;BME280;10590;48.154;11.514;2023-05-12T21:53:19;95600.31;;;9.66;80.99
20860;BME280;10590;48.154;11.514;2023-05-12T21:58:42;95601.47;;;9.82;80.43
20860;BME280;10590;48.154;11.514;2023-05-12T22:04:04;95597.38;;;9.84;81.11
20860;BME280;10590;48.154;11.514;2023-05-12T22:09:26;95605.78;;;9.61;81.21
20860;BME280;10590;48.154;11.514;2023-05-12T22:14:49;95606.03;;;9.99;80.58
20860;BME280;10590;48.154;11.514;2023-05-12T22:20:12;95600.34;;;9.74;80.30
20860;BME280;10590;48.154;11.514;2023-05-12T22:25:34;95601.16;;;9.92;79.99
20860;BME280;10590;48.154;11.514;2023-05-12T22:30:57;95601.63;;;9.94;79.54
20860;BME280;10590;48.154;11.514;2023-05-12T22:36:19;95598.47;;;9.75;79.75
20860;BME280;10590;48.154;11.514;2023-05-12T22:41:42;95599.69;;;9.60;80.72
20860;BME280;10590;48.154;11.514;2023-05-12T22:47:10;95589.28;;;9.50;80.52
20860;BME280;10590;48.154;11.514;2023-05-12T22:52:32;95567.13;;;9.32;80.80
20860;BME280;10590;48.154;11.514;2023-05-12T22:57:54;95588.91;;;9.82;79.59
20860;BME280;10590;48.154;11.514;2023-05-12T23:03:18;95586.56;;;9.72;79.73
20860;BME280;10590;48.154;11.514;2023-05-12T23:08:40;95579.94;;;9.61;80.46
20860;BME280;10590;48.154;11.514;2023-05-12T23:14:03;95582.47;;;9.75;80.15
20860;BME280;10590;48.154;11.514;2023-05-12T23:19:27;95578.25;;;9.34;81.38
20860;BME280;10590;48.154;11.514;2023-05-12T23:24:50;95583.06;;;9.63;80.85
20860;BME280;10590;48.154;11.514;2023-05-12T23:30:12;95579.34;;;9.73;80.47
20860;BME280;10590;48.154;11.514;2023-05-12T23:35:35;95585.25;;;9.61;81.26
20860;BME280;10590;48.154;11.514;2023-05-12T23:40:57;95580.16;;;9.90;80.10
20860;BME280;10590;48.154;11.514;2023-05-12T23:46:19;95570.44;;;9.86;80.17
20860;BME280;10590;48.154;11.514;2023-05-12T23:51:43;95571.34;;;9.73;80.84
20860;BME280;10590;48.154;11.514;2023-05-12T23:57:04;95565.38;;;9.67;80.56
